Time;durP1;ratioP1;P1;durP2;ratioP2;P2;SDS_P1;SDS_P2;PMS_P1;PMS_P2;Temp;Humidity;BMP_temperature;BMP_pressure;BME280_temperature;BME280_humidity;BME280_pressure;Samples;Min_cycle;Max_cycle;Signal;HPM_P1;HPM_P2
2023/06/20 00:08:05;;;;;;;16.27;9.90;;;;;;;19.47;61.20;100054.44;30506966;28;103718;-75
2023/06/20 00:23:06;;;;;;;12.10;9.73;;;;;;;19.18;62.27;100046.16;30506225;28;96715;-69
2023/06/20 00:38:06;;;;;;;13.32;10.02;;;;;;;18.93;63.13;100032.78;30504927;28;97355;-76
2023/06/20 00:53:07;;;;;;;11.98;9.80;;;;;;;18.68;63.95;100027.50;30503424;28;96743;-68
2023/06/20 01:08:17;;;;;;;15.90;10.38;;;;;;;18.45;64.86;100026.31;30501760;28;96829;-76
2023/06/20 01:23:32;;;;;;;17.23;11.43;;;;;;;18.21;65.37;100018.13;30500540;28;96874;-73
2023/06/20 01:38:34;;;;;;;14.67;12.00;;;;;;;18.00;66.38;100021.25;30498822;28;97331;-73
2023/06/20 01:53:36;;;;;;;18.27;11.13;;;;;;;17.78;67.06;100010.84;30497339;28;96625;-76
2023/06/20 02:08:39;;;;;;;15.93;12.93;;;;;;;17.62;67.83;100008.72;30496199;28;96785;-72
2023/06/20 02:23:40;;;;;;;26.37;13.37;;;;;;;17.47;68.37;100006.38;30495433;28;96635;-76
2023/06/20 02:38:41;;;;;;;16.43;13.97;;;;;;;17.36;69.05;100016.81;30493073;28;97120;-69
2023/06/20 02:54:07;;;;;;;18.67;14.02;;;;;;;17.28;69.47;100035.94;30492533;28;97144;-76
2023/06/20 03:09:09;;;;;;;25.80;14.77;;;;;;;17.32;69.98;100025.53;30490086;28;96829;-76
2023/06/20 03:24:09;;;;;;;18.53;14.87;;;;;;;17.36;69.94;100026.75;30488839;28;96762;-76
2023/06/20 03:39:09;;;;;;;19.20;14.85;;;;;;;17.43;70.17;100043.72;30487266;28;101319;-68
2023/06/20 03:54:10;;;;;;;18.88;15.75;;;;;;;17.72;69.96;100060.25;30491213;28;97093;-71
2023/06/20 04:09:10;;;;;;;20.00;14.10;;;;;;;18.16;69.52;100069.19;30505292;28;97596;-80
2023/06/20 04:24:11;;;;;;;22.35;14.88;;;;;;;18.65;69.18;100049.56;30501993;28;112928;-67
2023/06/20 04:39:11;;;;;;;20.35;14.30;;;;;;;19.22;68.31;100047.34;30501053;28;96814;-71
2023/06/20 04:54:11;;;;;;;19.38;14.30;;;;;;;19.66;67.80;100046.25;30500883;28;96723;-67
2023/06/20 05:09:12;;;;;;;17.77;13.38;;;;;;;20.34;66.84;100052.94;30496797;28;99959;-73
2023/06/20 05:24:13;;;;;;;14.37;11.53;;;;;;;21.07;65.73;100039.75;30498844;28;96779;-67
2023/06/20 05:39:14;;;;;;;18.63;12.20;;;;;;;21.56;64.58;100066.34;30497153;28;97363;-76
2023/06/20 05:54:14;;;;;;;16.27;12.73;;;;;;;22.32;63.00;100083.97;30494825;28;97444;-71
2023/06/20 06:09:17;;;;;;;19.60;12.13;;;;;;;23.05;61.69;100102.81;30491804;28;96837;-73
2023/06/20 06:24:21;;;;;;;12.57;9.83;;;;;;;23.54;59.62;100110.13;30473580;28;98420;-66
2023/06/20 06:39:24;;;;;;;13.93;9.50;;;;;;;24.42;56.85;100103.38;30488618;28;97522;-69
2023/06/20 06:54:24;;;;;;;14.83;10.23;;;;;;;25.19;53.66;100127.38;30488018;28;97145;-68
2023/06/20 07:09:25;;;;;;;13.77;8.93;;;;;;;26.10;50.71;100121.47;30486861;28;97410;-66
2023/06/20 07:24:25;;;;;;;11.13;8.30;;;;;;;26.98;49.13;100125.56;30486217;28;96857;-76
2023/06/20 07:39:25;;;;;;;12.02;8.20;;;;;;;28.12;46.48;100100.13;30505203;28;101214;-67
2023/06/20 07:54:26;;;;;;;9.15;7.85;;;;;;;29.18;42.15;100103.72;30504554;28;104621;-73
2023/06/20 08:09:26;;;;;;;8.57;6.75;;;;;;;30.04;39.35;100092.47;30503619;28;97467;-69
2023/06/20 08:24:26;;;;;;;9.60;7.45;;;;;;;31.38;35.99;100089.66;30485351;28;106059;-70
2023/06/20 08:39:27;;;;;;;7.70;6.63;;;;;;;31.83;33.61;100088.78;30501652;28;96760;-76
2023/06/20 08:54:36;;;;;;;9.32;7.22;;;;;;;33.15;32.14;100092.78;30496283;28;97477;-74
2023/06/20 09:09:39;;;;;;;6.97;6.27;;;;;;;33.60;29.18;100079.72;30497472;28;96833;-78
2023/06/20 09:24:44;;;;;;;9.37;5.60;;;;;;;34.19;27.27;100084.63;30497173;28;97502;-67
2023/06/20 09:39:44;;;;;;;;;;;;;;;35.12;25.84;100064.50;30449110;28;99396;-70
2023/06/20 09:54:56;;;;;;;7.78;6.80;;;;;;;36.26;24.85;100070.41;30485457;28;97080;-70
2023/06/20 10:09:58;;;;;;;6.33;5.63;;;;;;;35.83;25.34;100065.44;30492115;28;96760;-71
2023/06/20 10:25:21;;;;;;;8.93;6.07;;;;;;;35.54;25.33;100064.44;30495201;28;97606;-73
2023/06/20 10:40:31;;;;;;;7.60;6.10;;;;;;;35.94;25.45;100055.53;30493786;28;97531;-72
2023/06/20 10:55:38;;;;;;;10.87;6.37;;;;;;;35.72;25.77;100046.47;30491487;28;97521;-71
2023/06/20 11:10:40;;;;;;;7.87;6.20;;;;;;;35.11;25.88;100046.28;30506390;28;97666;-69
2023/06/20 11:25:42;;;;;;;6.77;5.97;;;;;;;36.01;24.82;100032.78;30607988;28;97519;-70
2023/06/20 11:40:43;;;;;;;7.10;5.10;;;;;;;36.36;24.51;100005.41;30626478;28;96717;-70
2023/06/20 11:55:55;;;;;;;7.30;5.97;;;;;;;37.62;23.36;100007.31;30625270;28;96742;-70
2023/06/20 12:11:00;;;;;;;8.60;5.40;;;;;;;37.78;23.37;99994.22;30624985;28;97375;-69
2023/06/20 12:26:01;;;;;;;5.97;5.37;;;;;;;36.28;24.55;99991.63;30622091;28;97739;-70
2023/06/20 12:41:02;;;;;;;6.03;4.47;;;;;;;34.86;25.70;99990.84;30621868;28;109361;-69
2023/06/20 12:56:03;;;;;;;7.20;4.93;;;;;;;33.84;27.72;99975.03;30618775;28;97207;-67
2023/06/20 13:11:04;;;;;;;5.97;4.78;;;;;;;33.53;28.70;99987.19;30492950;28;98228;-69
2023/06/20 13:26:08;;;;;;;6.32;5.35;;;;;;;34.16;27.55;99992.13;30526267;28;98530;-69
2023/06/20 13:41:08;;;;;;;12.30;5.17;;;;;;;34.29;27.94;99981.94;30553800;28;96722;-67
2023/06/20 13:56:08;;;;;;;7.85;5.35;;;;;;;34.34;27.90;99981.78;30541657;28;110031;-68
2023/06/20 14:11:11;;;;;;;6.38;5.20;;;;;;;34.40;27.61;99974.09;30528923;28;97420;-68
2023/06/20 14:26:11;;;;;;;7.43;5.33;;;;;;;34.40;28.00;99974.88;30467903;28;98282;-69
2023/06/20 14:41:11;;;;;;;6.78;5.00;;;;;;;34.60;27.31;99972.47;30480881;28;97405;-68
2023/06/20 14:56:12;;;;;;;5.82;4.80;;;;;;;34.61;26.39;99965.78;30479368;28;97431;-71
2023/06/20 15:11:12;;;;;;;5.82;4.82;;;;;;;33.94;26.29;99957.28;30474380;28;112102;-69
2023/06/20 15:26:12;;;;;;;8.88;4.53;;;;;;;32.88;27.58;99953.22;30478480;28;97522;-72
2023/06/20 15:41:13;;;;;;;7.03;5.25;;;;;;;31.70;30.11;99925.31;30359391;28;97303;-68
2023/06/20 15:56:13;;;;;;;9.30;5.80;;;;;;;31.32;32.31;99936.78;30376253;28;98202;-68
2023/06/20 16:11:15;;;;;;;6.63;5.93;;;;;;;30.36;37.11;99950.59;30486602;28;96939;-70
2023/06/20 16:26:15;;;;;;;10.43;7.60;;;;;;;29.64;37.28;99932.06;30488871;28;98724;-68
2023/06/20 16:41:16;;;;;;;12.85;7.90;;;;;;;29.97;40.88;99938.25;30499255;28;97261;-68
2023/06/20 16:56:16;;;;;;;9.65;7.25;;;;;;;29.41;44.31;99929.19;30497082;28;96700;-69
2023/06/20 17:11:17;;;;;;;6.82;5.30;;;;;;;29.33;41.95;99919.72;30496433;28;97795;-69
2023/06/20 17:26:17;;;;;;;8.23;6.57;;;;;;;29.26;40.77;99913.00;30452996;28;97440;-67
2023/06/20 17:41:18;;;;;;;7.78;5.57;;;;;;;28.62;43.57;99917.00;30364540;28;97847;-67
2023/06/20 17:56:18;;;;;;;7.20;5.73;;;;;;;28.05;44.18;99891.56;30363607;28;97268;-69
2023/06/20 18:11:19;;;;;;;6.60;4.65;;;;;;;27.31;44.73;99889.91;30363387;28;110283;-69
2023/06/20 18:26:19;;;;;;;7.78;4.47;;;;;;;26.76;44.33;99904.63;30365606;28;97399;-70
2023/06/20 18:41:19;;;;;;;6.03;3.83;;;;;;;26.44;44.05;99902.38;30363014;28;97145;-69
2023/06/20 18:56:20;;;;;;;9.20;4.13;;;;;;;26.18;43.68;99918.91;30363005;28;96662;-69
2023/06/20 19:11:20;;;;;;;5.82;3.83;;;;;;;26.00;43.83;99932.06;30361824;28;97296;-69
2023/06/20 19:26:21;;;;;;;8.18;4.43;;;;;;;26.21;43.55;99934.72;30438590;28;97400;-69
2023/06/20 19:41:22;;;;;;;6.67;3.77;;;;;;;25.44;45.20;99933.06;30480158;28;96973;-68
2023/06/20 19:56:22;;;;;;;5.90;4.00;;;;;;;25.32;46.26;99930.59;30496519;28;113344;-69
2023/06/20 20:11:22;;;;;;;7.72;4.72;;;;;;;25.49;45.50;99934.94;30498638;28;108615;-71
2023/06/20 20:26:23;;;;;;;6.35;4.65;;;;;;;25.40;45.87;99925.72;30505002;28;96865;-69
2023/06/20 20:41:23;;;;;;;6.70;5.40;;;;;;;25.29;46.49;99933.88;30502653;28;97391;-70
2023/06/20 20:56:23;;;;;;;7.22;5.72;;;;;;;25.16;47.31;99927.06;30502720;28;98602;-68
2023/06/20 21:11:24;;;;;;;8.18;6.22;;;;;;;24.93;48.21;99927.63;30496521;28;97334;-68
2023/06/20 21:26:24;;;;;;;11.02;6.80;;;;;;;24.59;48.96;99928.94;30492353;28;96777;-70
2023/06/20 21:41:25;;;;;;;12.07;6.93;;;;;;;24.28;49.98;99934.28;30490966;28;96796;-70
2023/06/20 21:56:25;;;;;;;10.23;7.38;;;;;;;23.93;50.39;99933.06;30489183;28;96997;-68
2023/06/20 22:11:25;;;;;;;10.27;7.72;;;;;;;23.74;51.35;99945.47;30452814;28;1155371;-68
2023/06/20 22:26:26;;;;;;;8.88;7.55;;;;;;;23.32;51.54;99936.25;30495300;28;97096;-70
2023/06/20 22:41:26;;;;;;;10.07;8.95;;;;;;;23.10;51.92;99925.44;30494820;28;96873;-68
2023/06/20 22:56:27;;;;;;;13.32;9.55;;;;;;;23.00;53.00;99899.03;30491880;28;97101;-71
2023/06/20 23:11:28;;;;;;;10.77;8.73;;;;;;;22.82;52.78;99881.25;30491687;28;96980;-72
2023/06/20 23:26:28;;;;;;;;;;;;;;;22.21;54.45;99900.44;30491558;28;96746;-70
2023/06/20 23:41:28;;;;;;;11.90;9.60;;;;;;;21.72;55.94;99909.34;30491225;28;97575;-71
2023/06/20 23:56:29;;;;;;;12.18;10.23;;;;;;;21.35;57.10;99902.59;30488982;28;99418;-69
